Time;durP1;ratioP1;P1;durP2;ratioP2;P2;SDS_P1;SDS_P2;PMS_P1;PMS_P2;Temp;Humidity;BMP_temperature;BMP_pressure;BME280_temperature;BME280_humidity;BME280_pressure;Samples;Min_cycle;Max_cycle;Signal;HPM_P1;HPM_P2
2021/10/03 00:00:14;;;;;;;3.28;3.03;;;;;;;;;;5015166;28;20279;-81
2021/10/03 00:02:43;;;;;;;3.53;2.70;;;;;;;;;;5014761;28;20261;-83
2021/10/03 00:05:12;;;;;;;2.50;2.28;;;;;;;;;;5014612;28;20200;-81
2021/10/03 00:07:39;;;;;;;3.33;3.00;;;;;;;;;;5017865;28;20730;-83
2021/10/03 00:10:07;;;;;;;3.20;2.90;;;;;;;;;;5024050;28;20204;-82
2021/10/03 00:12:34;;;;;;;3.50;2.70;;;;;;;;;;5014702;28;20404;-83
2021/10/03 00:15:01;;;;;;;3.20;2.90;;;;;;;;;;5014190;28;20209;-83
2021/10/03 00:17:28;;;;;;;2.63;2.42;;;;;;;;;;5015841;28;20197;-83
2021/10/03 00:19:56;;;;;;;4.03;2.70;;;;;;;;;;5014918;28;20714;-83
2021/10/03 00:22:24;;;;;;;3.75;2.58;;;;;;;;;;5019757;28;20216;-82
2021/10/03 00:24:51;;;;;;;3.35;2.80;;;;;;;;;;5014052;28;20200;-83
2021/10/03 00:27:19;;;;;;;3.47;3.17;;;;;;;;;;5015096;28;20197;-83
2021/10/03 00:29:46;;;;;;;3.38;2.80;;;;;;;;;;5014565;28;20227;-83
2021/10/03 00:32:13;;;;;;;3.53;3.20;;;;;;;;;;5013289;28;20255;-82
2021/10/03 00:34:40;;;;;;;3.85;2.60;;;;;;;;;;5014468;28;20193;-83
2021/10/03 00:37:07;;;;;;;3.22;2.92;;;;;;;;;;5015069;28;20609;-82
2021/10/03 00:39:35;;;;;;;3.58;3.28;;;;;;;;;;5014006;28;20201;-83
2021/10/03 00:42:02;;;;;;;3.85;3.42;;;;;;;;;;5013863;28;20623;-81
2021/10/03 00:44:29;;;;;;;2.70;2.40;;;;;;;;;;5026774;28;20204;-82
2021/10/03 00:46:57;;;;;;;2.85;2.65;;;;;;;;;;5034202;28;20200;-82
2021/10/03 00:49:25;;;;;;;3.30;3.00;;;;;;;;;;5033844;28;20200;-81
2021/10/03 00:51:52;;;;;;;2.80;2.55;;;;;;;;;;5013873;28;20205;-80
2021/10/03 00:54:19;;;;;;;3.63;3.33;;;;;;;;;;5014313;28;20220;-81
2021/10/03 00:56:48;;;;;;;3.40;3.10;;;;;;;;;;5013858;28;20204;-79
2021/10/03 00:59:15;;;;;;;3.30;3.00;;;;;;;;;;5013617;28;20193;-81
2021/10/03 01:01:42;;;;;;;2.95;2.65;;;;;;;;;;5011571;28;20644;-81
2021/10/03 01:04:09;;;;;;;5.28;2.58;;;;;;;;;;5026885;28;20714;-81
2021/10/03 01:06:36;;;;;;;2.85;2.63;;;;;;;;;;5023707;28;20201;-80
2021/10/03 01:09:04;;;;;;;5.03;2.60;;;;;;;;;;5013061;28;20647;-80
2021/10/03 01:11:31;;;;;;;2.53;2.22;;;;;;;;;;5012744;28;20200;-80
2021/10/03 01:13:59;;;;;;;2.95;2.75;;;;;;;;;;5015450;28;20696;-80
2021/10/03 01:16:27;;;;;;;3.25;2.80;;;;;;;;;;5013718;28;20678;-81
2021/10/03 01:18:55;;;;;;;2.65;2.45;;;;;;;;;;5014903;28;20208;-80
2021/10/03 01:21:23;;;;;;;3.10;2.78;;;;;;;;;;5011177;28;20421;-79
2021/10/03 01:23:53;;;;;;;3.63;2.33;;;;;;;;;;5012493;28;20248;-82
2021/10/03 01:26:20;;;;;;;3.40;2.83;;;;;;;;;;5012667;28;20686;-80
2021/10/03 01:28:48;;;;;;;2.70;2.50;;;;;;;;;;5025313;28;20195;-81
2021/10/03 01:31:15;;;;;;;3.65;2.42;;;;;;;;;;5018406;28;20220;-81
2021/10/03 01:33:43;;;;;;;3.15;2.88;;;;;;;;;;5012596;28;20193;-80
2021/10/03 01:36:10;;;;;;;3.10;2.80;;;;;;;;;;5013139;28;20196;-81
2021/10/03 01:38:39;;;;;;;3.78;2.65;;;;;;;;;;5019974;28;20579;-82
2021/10/03 01:41:06;;;;;;;3.00;2.53;;;;;;;;;;5011179;28;20204;-80
2021/10/03 01:43:33;;;;;;;2.83;2.50;;;;;;;;;;5007265;28;20228;-80
2021/10/03 01:46:01;;;;;;;2.65;2.45;;;;;;;;;;5002855;28;20667;-81
2021/10/03 01:48:29;;;;;;;6.07;2.83;;;;;;;;;;5019674;28;20288;-81
2021/10/03 01:50:57;;;;;;;2.88;2.67;;;;;;;;;;5012145;28;20275;-81
2021/10/03 01:53:25;;;;;;;3.03;2.72;;;;;;;;;;5012302;28;20222;-81
2021/10/03 01:55:53;;;;;;;3.63;3.10;;;;;;;;;;5012725;28;20208;-81
2021/10/03 01:58:22;;;;;;;2.40;2.20;;;;;;;;;;5020104;28;20639;-81
2021/10/03 02:00:50;;;;;;;2.90;2.55;;;;;;;;;;5011271;28;20271;-82
2021/10/03 02:03:17;;;;;;;3.05;2.53;;;;;;;;;;5012749;28;20274;-77
2021/10/03 02:05:45;;;;;;;5.93;2.67;;;;;;;;;;5012738;28;20200;-83
2021/10/03 02:08:13;;;;;;;3.90;2.63;;;;;;;;;;5013848;28;20201;-80
2021/10/03 02:10:41;;;;;;;2.30;2.10;;;;;;;;;;5011722;28;20201;-82
2021/10/03 02:13:10;;;;;;;2.65;2.45;;;;;;;;;;5012954;28;20189;-81
2021/10/03 02:15:38;;;;;;;2.80;2.60;;;;;;;;;;5013111;28;20209;-81
2021/10/03 02:18:06;;;;;;;3.33;2.85;;;;;;;;;;5019468;28;20204;-81
2021/10/03 02:20:33;;;;;;;3.40;2.95;;;;;;;;;;5012559;28;20204;-82
2021/10/03 02:23:00;;;;;;;2.40;2.20;;;;;;;;;;5014498;28;20295;-82
2021/10/03 02:25:27;;;;;;;3.35;3.05;;;;;;;;;;5025741;28;20196;-79
2021/10/03 02:27:55;;;;;;;3.30;2.72;;;;;;;;;;5011927;28;20212;-80
2021/10/03 02:30:23;;;;;;;3.55;3.22;;;;;;;;;;5021282;28;20263;-80
2021/10/03 02:32:50;;;;;;;2.90;2.10;;;;;;;;;;5008986;28;20220;-81
2021/10/03 02:35:17;;;;;;;4.45;2.70;;;;;;;;;;5001586;28;20208;-81
2021/10/03 02:37:45;;;;;;;3.00;2.70;;;;;;;;;;5011804;28;20201;-80
2021/10/03 02:40:14;;;;;;;3.22;2.05;;;;;;;;;;5012563;28;20249;-81
2021/10/03 02:42:41;;;;;;;2.50;2.30;;;;;;;;;;5012256;28;20634;-81
2021/10/03 02:45:09;;;;;;;3.17;2.65;;;;;;;;;;5029880;28;20208;-80
2021/10/03 02:47:38;;;;;;;2.70;2.50;;;;;;;;;;5012089;28;20723;-79
2021/10/03 02:50:05;;;;;;;2.72;2.53;;;;;;;;;;5017740;28;20278;-80
2021/10/03 02:52:32;;;;;;;2.17;1.98;;;;;;;;;;5012354;28;20197;-80
2021/10/03 02:55:00;;;;;;;2.90;2.60;;;;;;;;;;5024862;28;20201;-81
2021/10/03 02:57:27;;;;;;;3.08;2.78;;;;;;;;;;5022367;28;20259;-81
2021/10/03 02:59:54;;;;;;;2.67;2.47;;;;;;;;;;5011202;28;20200;-81
2021/10/03 03:02:21;;;;;;;3.70;3.03;;;;;;;;;;5012331;28;20690;-81
2021/10/03 03:04:49;;;;;;;2.00;1.80;;;;;;;;;;5013986;28;20221;-81
2021/10/03 03:07:16;;;;;;;2.50;2.30;;;;;;;;;;5014828;28;20201;-82
2021/10/03 03:09:43;;;;;;;2.20;2.00;;;;;;;;;;5015011;28;20201;-83
2021/10/03 03:12:10;;;;;;;3.38;2.67;;;;;;;;;;5012872;28;20308;-82
2021/10/03 03:14:37;;;;;;;3.22;2.50;;;;;;;;;;5017067;28;20201;-84
2021/10/03 03:17:15;;;;;;;2.63;2.33;;;;;;;;;;5013063;28;20209;-84
2021/10/03 03:19:42;;;;;;;2.65;2.45;;;;;;;;;;5012031;28;20228;-83
2021/10/03 03:22:10;;;;;;;2.75;2.35;;;;;;;;;;5013029;28;20229;-84
2021/10/03 03:24:37;;;;;;;2.55;2.35;;;;;;;;;;5020482;28;20225;-86
2021/10/03 03:27:05;;;;;;;2.75;2.22;;;;;;;;;;5012756;28;20219;-83
2021/10/03 03:29:32;;;;;;;2.15;1.90;;;;;;;;;;5010750;28;20217;-84
2021/10/03 03:31:59;;;;;;;2.70;2.50;;;;;;;;;;5011934;28;20706;-83
2021/10/03 03:34:26;;;;;;;2.33;2.13;;;;;;;;;;5015572;28;20200;-84
2021/10/03 03:36:53;;;;;;;2.40;2.00;;;;;;;;;;5012401;28;20228;-83
2021/10/03 03:39:22;;;;;;;3.47;2.00;;;;;;;;;;5018762;28;20206;-79
2021/10/03 03:41:49;;;;;;;4.55;2.00;;;;;;;;;;5015076;28;20196;-82
2021/10/03 03:44:16;;;;;;;2.85;2.65;;;;;;;;;;5021718;28;20622;-83
2021/10/03 03:46:43;;;;;;;1.77;1.67;;;;;;;;;;5034971;28;20250;-81
2021/10/03 03:49:10;;;;;;;2.95;2.60;;;;;;;;;;5015073;28;20251;-80
2021/10/03 03:51:37;;;;;;;2.42;1.85;;;;;;;;;;5015530;28;20200;-82
2021/10/03 03:54:04;;;;;;;3.50;2.10;;;;;;;;;;5015127;28;20255;-81
2021/10/03 03:56:32;;;;;;;3.35;2.08;;;;;;;;;;5014828;28;20255;-81
2021/10/03 03:58:59;;;;;;;2.50;2.30;;;;;;;;;;5013657;28;20212;-81
2021/10/03 04:01:27;;;;;;;2.47;2.22;;;;;;;;;;5014318;28;20201;-82
2021/10/03 04:03:54;;;;;;;3.95;3.55;;;;;;;;;;5019959;28;20299;-81
2021/10/03 04:06:21;;;;;;;2.50;2.30;;;;;;;;;;5034702;28;20290;-79
2021/10/03 04:08:48;;;;;;;2.80;2.47;;;;;;;;;;5016881;28;20255;-78
2021/10/03 04:11:15;;;;;;;3.38;2.92;;;;;;;;;;5023484;28;20200;-80
2021/10/03 04:13:44;;;;;;;3.17;2.60;;;;;;;;;;5026211;28;20197;-80
2021/10/03 04:16:11;;;;;;;2.63;2.42;;;;;;;;;;5014576;28;20266;-79
2021/10/03 04:18:38;;;;;;;2.55;2.10;;;;;;;;;;5014987;28;20652;-79
2021/10/03 04:21:05;;;;;;;2.80;2.53;;;;;;;;;;5014728;28;20201;-80
2021/10/03 04:23:32;;;;;;;2.50;2.30;;;;;;;;;;5013240;28;20283;-79
2021/10/03 04:25:59;;;;;;;2.65;2.40;;;;;;;;;;5014521;28;20208;-80
2021/10/03 04:28:27;;;;;;;2.58;2.38;;;;;;;;;;5014953;28;20659;-80
2021/10/03 04:30:55;;;;;;;5.05;2.72;;;;;;;;;;5024612;28;20220;-81
2021/10/03 04:33:22;;;;;;;3.35;2.60;;;;;;;;;;5014036;28;20651;-81
2021/10/03 04:35:49;;;;;;;3.05;2.33;;;;;;;;;;5012858;28;20618;-82
2021/10/03 04:38:16;;;;;;;2.78;2.58;;;;;;;;;;5013334;28;20255;-80
2021/10/03 04:40:43;;;;;;;3.00;2.70;;;;;;;;;;5028422;28;20250;-82
2021/10/03 04:43:10;;;;;;;2.95;2.53;;;;;;;;;;5033936;28;20199;-81
2021/10/03 04:45:37;;;;;;;2.65;2.20;;;;;;;;;;5014745;28;20201;-82
2021/10/03 04:48:06;;;;;;;3.17;2.88;;;;;;;;;;5013779;28;20201;-81
2021/10/03 04:50:33;;;;;;;5.13;3.25;;;;;;;;;;5014224;28;20200;-81
2021/10/03 04:53:00;;;;;;;3.80;2.90;;;;;;;;;;5020724;28;20963;-81
2021/10/03 04:55:27;;;;;;;2.95;2.72;;;;;;;;;;5014866;28;20607;-80
2021/10/03 04:57:55;;;;;;;2.95;2.75;;;;;;;;;;5010040;28;20319;-80
2021/10/03 05:00:22;;;;;;;3.53;3.22;;;;;;;;;;5013437;28;20215;-80
2021/10/03 05:02:49;;;;;;;3.10;2.80;;;;;;;;;;5025303;28;20491;-80
2021/10/03 05:05:17;;;;;;;3.58;3.28;;;;;;;;;;5014647;28;20596;-80
2021/10/03 05:07:44;;;;;;;4.75;3.60;;;;;;;;;;5012826;28;20200;-80
2021/10/03 05:10:11;;;;;;;3.53;3.22;;;;;;;;;;5013314;28;20216;-81
2021/10/03 05:12:38;;;;;;;3.58;3.13;;;;;;;;;;5014564;28;20655;-80
2021/10/03 05:15:05;;;;;;;4.68;3.47;;;;;;;;;;5014426;28;20197;-80
2021/10/03 05:17:33;;;;;;;3.78;3.42;;;;;;;;;;5013419;28;20200;-80
2021/10/03 05:20:00;;;;;;;3.42;2.63;;;;;;;;;;5014464;28;20224;-81
2021/10/03 05:22:28;;;;;;;3.85;3.13;;;;;;;;;;5012759;28;20201;-81
2021/10/03 05:24:55;;;;;;;5.07;3.35;;;;;;;;;;5010890;28;20228;-80
2021/10/03 05:27:22;;;;;;;5.32;3.67;;;;;;;;;;5012969;28;20243;-80
2021/10/03 05:29:49;;;;;;;3.67;3.28;;;;;;;;;;5030467;28;20224;-80
2021/10/03 05:32:17;;;;;;;3.55;3.25;;;;;;;;;;5012445;28;20592;-80
2021/10/03 05:34:44;;;;;;;3.63;3.30;;;;;;;;;;5012685;28;20197;-80
2021/10/03 05:37:11;;;;;;;2.63;2.42;;;;;;;;;;5012271;28;20208;-80
2021/10/03 05:39:39;;;;;;;3.20;3.00;;;;;;;;;;5013038;28;20209;-82
2021/10/03 05:42:06;;;;;;;3.88;2.65;;;;;;;;;;5012824;28;20203;-82
2021/10/03 05:44:33;;;;;;;4.20;3.80;;;;;;;;;;5012011;28;20664;-80
2021/10/03 05:47:00;;;;;;;3.45;3.05;;;;;;;;;;5011699;28;20546;-80
2021/10/03 05:49:27;;;;;;;3.63;2.75;;;;;;;;;;5012373;28;20208;-80
2021/10/03 05:51:54;;;;;;;5.07;3.22;;;;;;;;;;5012597;28;20205;-81
2021/10/03 05:54:21;;;;;;;3.88;3.55;;;;;;;;;;5013331;28;20656;-81
2021/10/03 05:56:50;;;;;;;3.42;2.78;;;;;;;;;;5012257;28;20279;-82
2021/10/03 05:59:17;;;;;;;5.88;3.50;;;;;;;;;;4992769;28;20224;-81
2021/10/03 06:01:44;;;;;;;4.10;3.70;;;;;;;;;;5006870;28;20556;-80
2021/10/03 06:04:11;;;;;;;3.78;3.25;;;;;;;;;;5012412;28;20217;-81
2021/10/03 06:06:38;;;;;;;4.07;3.78;;;;;;;;;;5013361;28;20251;-81
2021/10/03 06:09:05;;;;;;;4.70;4.30;;;;;;;;;;5010784;28;20622;-80
2021/10/03 06:11:32;;;;;;;3.70;3.40;;;;;;;;;;5011446;28;20197;-81
2021/10/03 06:14:00;;;;;;;4.30;3.90;;;;;;;;;;5010854;28;20200;-81
2021/10/03 06:16:27;;;;;;;5.20;2.95;;;;;;;;;;5013990;28;20252;-80
2021/10/03 06:18:54;;;;;;;3.83;3.53;;;;;;;;;;5011968;28;20200;-80
2021/10/03 06:21:21;;;;;;;4.45;3.45;;;;;;;;;;5019744;28;20192;-80
2021/10/03 06:23:49;;;;;;;8.02;5.03;;;;;;;;;;5015234;28;20687;-80
2021/10/03 06:26:16;;;;;;;4.35;3.20;;;;;;;;;;5011046;28;20201;-81
2021/10/03 06:28:43;;;;;;;7.57;3.60;;;;;;;;;;5011576;28;20193;-80
2021/10/03 06:31:12;;;;;;;4.15;3.75;;;;;;;;;;5012760;28;20224;-80
2021/10/03 06:33:40;;;;;;;4.30;3.67;;;;;;;;;;5012115;28;20197;-80
2021/10/03 06:36:07;;;;;;;4.45;3.45;;;;;;;;;;5011158;28;20659;-79
2021/10/03 06:38:35;;;;;;;3.50;3.20;;;;;;;;;;5011709;28;20193;-80
2021/10/03 06:41:02;;;;;;;4.78;4.18;;;;;;;;;;5030621;28;20281;-81
2021/10/03 06:43:30;;;;;;;4.30;3.63;;;;;;;;;;5020494;28;20663;-80
2021/10/03 06:45:57;;;;;;;4.22;3.83;;;;;;;;;;5011053;28;20583;-81
2021/10/03 06:48:26;;;;;;;4.30;3.90;;;;;;;;;;5011873;28;20769;-81
2021/10/03 06:50:53;;;;;;;3.65;3.25;;;;;;;;;;5016304;28;20197;-81
2021/10/03 06:53:20;;;;;;;4.30;3.90;;;;;;;;;;5018812;28;20204;-81
2021/10/03 06:55:47;;;;;;;6.03;5.45;;;;;;;;;;5006185;28;20267;-81
2021/10/03 06:58:14;;;;;;;4.43;3.72;;;;;;;;;;5012278;28;20193;-80
2021/10/03 07:00:41;;;;;;;4.63;4.22;;;;;;;;;;5023169;28;20216;-79
2021/10/03 07:03:08;;;;;;;4.65;4.25;;;;;;;;;;5012153;28;20609;-80
2021/10/03 07:05:36;;;;;;;5.00;4.50;;;;;;;;;;5010716;28;20275;-80
2021/10/03 07:08:05;;;;;;;7.13;4.45;;;;;;;;;;5010331;28;20192;-80
2021/10/03 07:10:32;;;;;;;3.80;3.42;;;;;;;;;;5012713;28;20196;-80
2021/10/03 07:13:00;;;;;;;4.55;4.07;;;;;;;;;;5012060;28;20602;-80
2021/10/03 07:15:27;;;;;;;4.65;4.25;;;;;;;;;;5014354;28;20201;-79
2021/10/03 07:17:54;;;;;;;4.28;3.88;;;;;;;;;;5014337;28;20687;-80
2021/10/03 07:20:21;;;;;;;5.03;4.05;;;;;;;;;;5028581;28;20211;-80
2021/10/03 07:22:49;;;;;;;4.55;4.03;;;;;;;;;;5016310;28;20207;-80
2021/10/03 07:25:16;;;;;;;5.20;4.45;;;;;;;;;;5013989;28;20694;-79
2021/10/03 07:27:43;;;;;;;5.38;4.85;;;;;;;;;;5014858;28;20630;-80
2021/10/03 07:30:10;;;;;;;5.68;4.22;;;;;;;;;;5027992;28;20216;-81
2021/10/03 07:32:38;;;;;;;6.97;4.95;;;;;;;;;;5016866;28;20679;-80
2021/10/03 07:35:05;;;;;;;5.40;4.90;;;;;;;;;;5013347;28;20251;-80
2021/10/03 07:37:32;;;;;;;5.07;4.50;;;;;;;;;;5013739;28;20388;-80
2021/10/03 07:40:02;;;;;;;5.53;5.03;;;;;;;;;;5013921;28;20217;-79
2021/10/03 07:42:30;;;;;;;6.90;6.30;;;;;;;;;;5014025;28;20212;-80
2021/10/03 07:44:57;;;;;;;4.47;4.07;;;;;;;;;;5014562;28;20263;-80
2021/10/03 07:47:24;;;;;;;4.63;4.22;;;;;;;;;;5014051;28;20607;-79
2021/10/03 07:49:51;;;;;;;5.47;4.47;;;;;;;;;;5018273;28;20200;-79
2021/10/03 07:52:18;;;;;;;4.85;4.35;;;;;;;;;;5014804;28;20244;-79
2021/10/03 07:54:45;;;;;;;5.13;4.50;;;;;;;;;;5014841;28;20651;-79
2021/10/03 07:57:13;;;;;;;4.47;4.07;;;;;;;;;;5013519;28;20204;-79
2021/10/03 07:59:40;;;;;;;5.43;4.80;;;;;;;;;;5013932;28;20209;-80
2021/10/03 08:02:08;;;;;;;5.07;4.03;;;;;;;;;;5015731;28;20197;-79
2021/10/03 08:04:35;;;;;;;5.35;4.85;;;;;;;;;;5016522;28;20263;-80
2021/10/03 08:07:02;;;;;;;5.88;4.72;;;;;;;;;;5013831;28;20626;-81
2021/10/03 08:09:29;;;;;;;6.18;4.47;;;;;;;;;;5013343;28;20205;-79
2021/10/03 08:11:56;;;;;;;5.10;4.60;;;;;;;;;;5028191;28;20196;-78
2021/10/03 08:14:24;;;;;;;4.60;4.20;;;;;;;;;;5030176;28;20197;-79
2021/10/03 08:16:51;;;;;;;5.10;3.88;;;;;;;;;;5030267;28;20216;-79
2021/10/03 08:19:18;;;;;;;4.72;4.32;;;;;;;;;;5013940;28;20247;-79
2021/10/03 08:21:45;;;;;;;4.35;3.95;;;;;;;;;;5015125;28;20201;-79
2021/10/03 08:24:13;;;;;;;5.75;4.88;;;;;;;;;;5013333;28;20274;-80
2021/10/03 08:26:40;;;;;;;4.70;4.30;;;;;;;;;;5016738;28;20250;-78
2021/10/03 08:29:07;;;;;;;5.22;4.40;;;;;;;;;;5017225;28;20197;-78
2021/10/03 08:31:35;;;;;;;4.70;4.30;;;;;;;;;;5012779;28;20714;-79
2021/10/03 08:34:02;;;;;;;6.25;5.22;;;;;;;;;;5013546;28;20204;-80
2021/10/03 08:36:29;;;;;;;5.22;4.72;;;;;;;;;;5028765;28;20717;-79
2021/10/03 08:38:57;;;;;;;5.03;4.53;;;;;;;;;;5013339;28;20200;-79
2021/10/03 08:41:24;;;;;;;5.50;5.00;;;;;;;;;;5013552;28;20257;-79
2021/10/03 08:43:53;;;;;;;7.57;5.28;;;;;;;;;;5013451;28;20201;-79
2021/10/03 08:46:24;;;;;;;8.23;5.18;;;;;;;;;;5029388;28;20230;-78
2021/10/03 08:48:52;;;;;;;5.75;4.22;;;;;;;;;;5014299;28;20719;-78
2021/10/03 08:51:19;;;;;;;5.65;4.63;;;;;;;;;;5008512;28;20678;-80
2021/10/03 08:53:46;;;;;;;4.72;4.32;;;;;;;;;;5012606;28;20197;-79
2021/10/03 08:56:13;;;;;;;4.05;3.72;;;;;;;;;;5014210;28;20576;-79
2021/10/03 08:58:40;;;;;;;5.20;4.32;;;;;;;;;;5012018;28;20235;-78
2021/10/03 09:01:10;;;;;;;6.18;4.30;;;;;;;;;;5015312;28;20267;-78
2021/10/03 09:03:37;;;;;;;4.45;4.05;;;;;;;;;;5012634;28;20555;-79
2021/10/03 09:06:06;;;;;;;5.15;4.28;;;;;;;;;;5009284;28;20235;-79
2021/10/03 09:08:38;;;;;;;6.60;4.88;;;;;;;;;;5014176;28;20267;-79
2021/10/03 09:11:05;;;;;;;5.65;5.15;;;;;;;;;;5013839;28;20197;-79
2021/10/03 09:13:43;;;;;;;5.03;4.53;;;;;;;;;;5011945;28;20200;-79
2021/10/03 09:16:11;;;;;;;4.95;3.85;;;;;;;;;;5027961;28;20219;-78
2021/10/03 09:18:40;;;;;;;5.28;4.78;;;;;;;;;;5018070;28;20192;-79
2021/10/03 09:21:09;;;;;;;4.82;4.43;;;;;;;;;;5018872;28;20196;-82
2021/10/03 09:23:37;;;;;;;6.75;4.85;;;;;;;;;;5012562;28;20687;-80
2021/10/03 09:26:05;;;;;;;5.72;5.20;;;;;;;;;;5013513;28;20209;-79
2021/10/03 09:28:33;;;;;;;5.85;4.60;;;;;;;;;;5015729;28;20197;-79
2021/10/03 09:31:04;;;;;;;5.88;4.05;;;;;;;;;;5013228;28;20711;-79
2021/10/03 09:33:49;;;;;;;4.63;4.22;;;;;;;;;;5013118;28;20259;-80
2021/10/03 09:36:18;;;;;;;5.30;4.32;;;;;;;;;;5021894;28;20556;-79
2021/10/03 09:38:47;;;;;;;4.65;4.25;;;;;;;;;;4993357;28;20201;-80
2021/10/03 09:41:15;;;;;;;5.30;4.82;;;;;;;;;;5006424;28;20197;-79
2021/10/03 09:43:43;;;;;;;5.30;4.75;;;;;;;;;;5011749;28;20292;-79
2021/10/03 09:46:11;;;;;;;4.70;4.35;;;;;;;;;;5018091;28;20215;-80
2021/10/03 09:48:48;;;;;;;5.70;4.32;;;;;;;;;;5012512;28;20207;-80
2021/10/03 09:51:15;;;;;;;5.38;4.85;;;;;;;;;;5016625;28;20247;-81
2021/10/03 09:53:45;;;;;;;5.72;3.90;;;;;;;;;;5012874;28;20203;-80
2021/10/03 09:56:12;;;;;;;5.32;4.93;;;;;;;;;;5012461;28;20196;-80
2021/10/03 09:58:40;;;;;;;5.00;4.60;;;;;;;;;;5012408;28;20224;-81
2021/10/03 10:01:08;;;;;;;5.15;4.60;;;;;;;;;;5013462;28;20196;-80
2021/10/03 10:03:37;;;;;;;6.82;5.00;;;;;;;;;;5013003;28;20267;-79
2021/10/03 10:06:04;;;;;;;5.00;4.50;;;;;;;;;;5013756;28;20243;-79
2021/10/03 10:08:31;;;;;;;4.88;4.47;;;;;;;;;;5014294;28;20244;-79
2021/10/03 10:11:04;;;;;;;5.03;4.53;;;;;;;;;;5017513;28;20208;-80
2021/10/03 10:13:31;;;;;;;5.85;3.80;;;;;;;;;;5005933;28;20201;-80
2021/10/03 10:16:13;;;;;;;4.70;4.30;;;;;;;;;;5014225;28;20197;-79
2021/10/03 10:18:40;;;;;;;4.93;4.43;;;;;;;;;;5015756;28;20201;-79
2021/10/03 10:21:20;;;;;;;4.93;4.53;;;;;;;;;;5012786;28;20255;-80
2021/10/03 10:23:48;;;;;;;4.45;4.05;;;;;;;;;;5013124;28;20295;-80
2021/10/03 10:26:37;;;;;;;4.63;4.22;;;;;;;;;;5031211;28;20227;-79
2021/10/03 10:29:05;;;;;;;4.13;3.72;;;;;;;;;;5011845;28;20215;-81
2021/10/03 10:31:34;;;;;;;4.70;4.30;;;;;;;;;;5010373;28;20249;-80
2021/10/03 10:34:03;;;;;;;6.38;4.90;;;;;;;;;;5011919;28;20288;-79
2021/10/03 10:36:30;;;;;;;5.80;4.82;;;;;;;;;;4999386;28;20188;-78
2021/10/03 10:39:17;;;;;;;4.90;4.50;;;;;;;;;;5012593;28;20208;-79
2021/10/03 10:41:46;;;;;;;4.93;4.43;;;;;;;;;;5012714;28;20693;-80
2021/10/03 10:44:28;;;;;;;6.65;4.60;;;;;;;;;;5016829;28;20204;-80
2021/10/03 10:46:56;;;;;;;4.80;4.40;;;;;;;;;;5016929;28;20540;-80
2021/10/03 10:49:37;;;;;;;4.22;3.92;;;;;;;;;;5019609;28;20776;-79
2021/10/03 10:52:24;;;;;;;4.65;4.22;;;;;;;;;;5015901;28;20209;-80
2021/10/03 10:55:06;;;;;;;4.93;3.90;;;;;;;;;;4997399;28;20287;-80
2021/10/03 10:57:57;;;;;;;6.25;5.65;;;;;;;;;;5007007;28;20243;-79
2021/10/03 11:00:25;;;;;;;4.10;3.80;;;;;;;;;;5015865;28;20193;-80
2021/10/03 11:02:52;;;;;;;4.32;3.92;;;;;;;;;;5015832;28;20714;-79
2021/10/03 11:05:40;;;;;;;4.47;4.07;;;;;;;;;;5016745;28;20286;-79
2021/10/03 11:08:08;;;;;;;4.28;3.88;;;;;;;;;;5017173;28;20203;-79
2021/10/03 11:11:00;;;;;;;5.35;4.85;;;;;;;;;;5015881;28;20209;-79
2021/10/03 11:13:44;;;;;;;4.78;4.25;;;;;;;;;;5015439;28;20599;-81
2021/10/03 11:16:21;;;;;;;4.85;3.65;;;;;;;;;;5011543;28;20644;-79
2021/10/03 11:18:52;;;;;;;5.40;4.05;;;;;;;;;;5014963;28;20200;-79
2021/10/03 11:21:23;;;;;;;4.18;3.78;;;;;;;;;;4999309;28;20192;-79
2021/10/03 11:23:51;;;;;;;4.15;3.85;;;;;;;;;;5021819;28;20217;-79
2021/10/03 11:26:19;;;;;;;3.85;3.53;;;;;;;;;;5014514;28;20219;-79
2021/10/03 11:28:51;;;;;;;3.63;3.33;;;;;;;;;;5009804;28;20193;-79
2021/10/03 11:31:34;;;;;;;4.82;4.43;;;;;;;;;;5009758;28;20228;-79
2021/10/03 11:34:01;;;;;;;6.20;4.82;;;;;;;;;;5016631;28;20197;-78
2021/10/03 11:36:29;;;;;;;4.40;4.00;;;;;;;;;;5014132;28;20203;-79
2021/10/03 11:38:59;;;;;;;5.03;4.63;;;;;;;;;;5015233;28;20204;-79
2021/10/03 11:41:26;;;;;;;4.60;3.92;;;;;;;;;;5013596;28;20203;-79
2021/10/03 11:43:55;;;;;;;4.90;3.78;;;;;;;;;;5015927;28;20197;-80
2021/10/03 11:46:22;;;;;;;4.63;4.30;;;;;;;;;;5003523;28;20707;-79
2021/10/03 11:48:53;;;;;;;6.85;5.13;;;;;;;;;;5008356;28;20201;-79
2021/10/03 11:51:20;;;;;;;3.90;3.58;;;;;;;;;;5018907;28;20652;-78
2021/10/03 11:53:49;;;;;;;4.10;3.70;;;;;;;;;;5013736;28;20197;-79
2021/10/03 11:56:19;;;;;;;4.45;4.05;;;;;;;;;;5013592;28;20232;-79
2021/10/03 11:58:48;;;;;;;4.40;4.00;;;;;;;;;;5018332;28;20229;-78
2021/10/03 12:01:17;;;;;;;4.55;4.15;;;;;;;;;;5012911;28;20566;-78
2021/10/03 12:03:47;;;;;;;4.32;4.00;;;;;;;;;;5012437;28;20609;-79
2021/10/03 12:06:19;;;;;;;4.47;3.65;;;;;;;;;;5013818;28;20221;-79
2021/10/03 12:08:46;;;;;;;4.07;3.78;;;;;;;;;;5014020;28;20197;-78
2021/10/03 12:11:14;;;;;;;7.97;3.75;;;;;;;;;;5011194;28;20694;-79
2021/10/03 12:13:41;;;;;;;6.35;4.45;;;;;;;;;;5008518;28;20211;-79
2021/10/03 12:16:14;;;;;;;4.25;3.85;;;;;;;;;;5013630;28;20200;-80
2021/10/03 12:18:47;;;;;;;5.03;4.30;;;;;;;;;;5013735;28;20201;-80
2021/10/03 12:21:20;;;;;;;5.95;5.32;;;;;;;;;;5015489;28;20524;-79
2021/10/03 12:23:54;;;;;;;4.13;3.83;;;;;;;;;;5010546;28;20209;-79
2021/10/03 12:26:27;;;;;;;5.00;4.50;;;;;;;;;;5005636;28;20563;-79
2021/10/03 12:28:55;;;;;;;3.60;3.30;;;;;;;;;;5005560;28;20213;-80
2021/10/03 12:31:35;;;;;;;4.45;3.90;;;;;;;;;;5012924;28;20220;-80
2021/10/03 12:34:03;;;;;;;4.70;4.30;;;;;;;;;;5013141;28;20200;-80
2021/10/03 12:36:30;;;;;;;5.72;4.10;;;;;;;;;;5010576;28;20655;-79
2021/10/03 12:38:58;;;;;;;3.55;3.20;;;;;;;;;;5013264;28;20259;-79
2021/10/03 12:41:25;;;;;;;4.40;4.00;;;;;;;;;;5012789;28;20201;-79
2021/10/03 12:43:55;;;;;;;4.25;3.85;;;;;;;;;;5009049;28;20250;-79
2021/10/03 12:46:22;;;;;;;4.65;4.00;;;;;;;;;;5018846;28;20212;-80
2021/10/03 12:48:49;;;;;;;4.55;3.78;;;;;;;;;;5014316;28;20199;-79
2021/10/03 12:51:18;;;;;;;4.15;3.78;;;;;;;;;;5013274;28;20200;-79
2021/10/03 12:53:45;;;;;;;4.00;3.70;;;;;;;;;;5012511;28;20201;-79
2021/10/03 12:56:12;;;;;;;4.68;4.30;;;;;;;;;;5012625;28;20189;-79
2021/10/03 12:58:41;;;;;;;4.70;4.30;;;;;;;;;;5013842;28;20260;-79
2021/10/03 13:01:08;;;;;;;4.78;4.38;;;;;;;;;;5013177;28;20287;-80
2021/10/03 13:03:38;;;;;;;4.63;4.22;;;;;;;;;;5023946;28;20246;-79
2021/10/03 13:06:05;;;;;;;4.30;3.90;;;;;;;;;;5016828;28;20221;-79
2021/10/03 13:08:34;;;;;;;5.30;4.35;;;;;;;;;;5014293;28;20543;-79
2021/10/03 13:11:01;;;;;;;4.15;3.75;;;;;;;;;;5012863;28;20205;-79
2021/10/03 13:13:29;;;;;;;4.43;4.03;;;;;;;;;;5011920;28;20205;-79
2021/10/03 13:15:56;;;;;;;4.38;3.95;;;;;;;;;;5012612;28;20247;-79
2021/10/03 13:18:23;;;;;;;4.10;3.70;;;;;;;;;;5011767;28;20606;-79
2021/10/03 13:20:51;;;;;;;4.75;4.35;;;;;;;;;;5015219;28;20607;-79
2021/10/03 13:23:18;;;;;;;4.25;3.95;;;;;;;;;;4992901;28;20248;-79
2021/10/03 13:25:46;;;;;;;4.25;3.88;;;;;;;;;;4999601;28;20197;-80
2021/10/03 13:28:13;;;;;;;6.30;5.50;;;;;;;;;;5012378;28;20279;-79
2021/10/03 13:30:40;;;;;;;4.57;4.18;;;;;;;;;;5011584;28;20224;-79
2021/10/03 13:33:07;;;;;;;4.55;4.15;;;;;;;;;;5012580;28;20196;-80
2021/10/03 13:35:38;;;;;;;5.10;4.05;;;;;;;;;;5009298;28;20725;-79
2021/10/03 13:38:06;;;;;;;4.93;4.53;;;;;;;;;;5012190;28;20617;-79
2021/10/03 13:40:33;;;;;;;4.15;3.85;;;;;;;;;;5013557;28;20199;-79
2021/10/03 13:43:01;;;;;;;5.95;5.45;;;;;;;;;;5012137;28;20548;-79
2021/10/03 13:45:28;;;;;;;4.28;3.97;;;;;;;;;;5011352;28;20251;-79
2021/10/03 13:47:55;;;;;;;4.13;3.72;;;;;;;;;;5012263;28;20220;-79
2021/10/03 13:50:22;;;;;;;5.25;4.80;;;;;;;;;;5015835;28;20627;-78
2021/10/03 13:52:50;;;;;;;4.00;3.70;;;;;;;;;;5027364;28;20245;-80
2021/10/03 13:55:17;;;;;;;3.50;3.20;;;;;;;;;;5012848;28;20196;-79
2021/10/03 13:57:44;;;;;;;3.30;3.00;;;;;;;;;;5017976;28;20197;-81
2021/10/03 14:00:13;;;;;;;4.82;3.75;;;;;;;;;;5012064;28;20738;-79
2021/10/03 14:02:41;;;;;;;3.97;3.60;;;;;;;;;;5015066;28;20459;-79
2021/10/03 14:05:08;;;;;;;4.05;3.70;;;;;;;;;;5013496;28;20201;-80
2021/10/03 14:07:36;;;;;;;3.60;3.30;;;;;;;;;;5011891;28;20223;-79
2021/10/03 14:10:03;;;;;;;4.00;3.65;;;;;;;;;;5007126;28;20664;-80
2021/10/03 14:12:30;;;;;;;3.75;3.45;;;;;;;;;;5004480;28;20247;-80
2021/10/03 14:14:57;;;;;;;4.00;3.60;;;;;;;;;;5009460;28;20201;-80
2021/10/03 14:17:25;;;;;;;4.45;4.05;;;;;;;;;;5007898;28;20189;-78
2021/10/03 14:19:52;;;;;;;4.20;3.80;;;;;;;;;;5004977;28;20196;-78
2021/10/03 14:22:19;;;;;;;4.63;4.22;;;;;;;;;;5014383;28;20275;-79
2021/10/03 14:24:46;;;;;;;3.50;3.20;;;;;;;;;;5011703;28;20208;-80
2021/10/03 14:27:13;;;;;;;4.85;4.35;;;;;;;;;;5004654;28;20229;-79
2021/10/03 14:29:42;;;;;;;4.93;4.43;;;;;;;;;;5009725;28;20583;-80
2021/10/03 14:32:10;;;;;;;3.85;3.55;;;;;;;;;;5012027;28;20667;-80
2021/10/03 14:34:38;;;;;;;3.95;3.42;;;;;;;;;;5014715;28;20228;-79
2021/10/03 14:37:07;;;;;;;3.80;3.50;;;;;;;;;;5002713;28;20232;-80
2021/10/03 14:39:34;;;;;;;6.80;3.65;;;;;;;;;;5011689;28;20207;-80
2021/10/03 14:42:01;;;;;;;3.67;3.38;;;;;;;;;;5001186;28;20644;-79
2021/10/03 14:44:28;;;;;;;3.80;3.50;;;;;;;;;;5011239;28;20201;-79
2021/10/03 14:46:55;;;;;;;4.63;3.47;;;;;;;;;;5011730;28;20213;-79
2021/10/03 14:49:22;;;;;;;3.50;3.20;;;;;;;;;;5014085;28;20249;-79